Time;durP1;ratioP1;P1;durP2;ratioP2;P2;SDS_P1;SDS_P2;PMS_P1;PMS_P2;Temp;Humidity;BMP_temperature;BMP_pressure;BME280_temperature;BME280_humidity;BME280_pressure;Samples;Min_cycle;Max_cycle;Signal;HPM_P1;HPM_P2
2022/02/14 00:01:44;;;;;;;5.35;3.42;;;8.10;99.90;;;;;;5036533;28;20233;-77
2022/02/14 00:04:10;;;;;;;6.43;3.10;;;8.10;99.90;;;;;;5036363;28;20210;-78
2022/02/14 00:06:35;;;;;;;5.97;2.77;;;8.00;99.90;;;;;;5036118;28;20550;-78
2022/02/14 00:09:01;;;;;;;5.40;2.73;;;7.90;99.90;;;;;;5035668;28;20175;-82
2022/02/14 00:11:26;;;;;;;5.80;2.83;;;8.00;99.90;;;;;;5036181;28;20593;-77
2022/02/14 00:13:52;;;;;;;6.93;2.90;;;8.00;99.90;;;;;;5036244;28;20201;-80
2022/02/14 00:16:18;;;;;;;5.40;2.67;;;8.00;99.90;;;;;;5036100;28;20241;-80
2022/02/14 00:18:43;;;;;;;7.00;2.90;;;8.00;99.90;;;;;;5035536;28;20727;-81
2022/02/14 00:21:09;;;;;;;4.67;2.97;;;8.00;99.90;;;;;;5018128;28;20263;-81
2022/02/14 00:23:34;;;;;;;4.53;2.97;;;8.00;99.90;;;;;;5035912;28;20221;-81
2022/02/14 00:26:00;;;;;;;4.53;2.70;;;8.00;99.90;;;;;;5035976;28;20191;-81
2022/02/14 00:28:26;;;;;;;4.43;2.67;;;7.90;99.90;;;;;;5036180;28;20619;-80
2022/02/14 00:30:52;;;;;;;3.30;2.60;;;8.00;99.90;;;;;;5035821;28;20265;-81
2022/02/14 00:33:18;;;;;;;3.97;2.63;;;8.00;99.90;;;;;;5034921;28;20246;-79
2022/02/14 00:35:43;;;;;;;4.80;2.30;;;8.10;99.90;;;;;;5035982;28;20210;-78
2022/02/14 00:38:11;;;;;;;4.60;2.33;;;8.10;99.90;;;;;;5034562;28;20413;-80
2022/02/14 00:40:37;;;;;;;6.70;2.88;;;8.10;99.90;;;;;;5035264;28;20204;-80
2022/02/14 00:43:03;;;;;;;6.37;3.20;;;8.10;99.90;;;;;;5035694;28;20182;-77
2022/02/14 00:45:30;;;;;;;3.33;2.40;;;8.10;99.90;;;;;;5035644;28;20183;-79
2022/02/14 00:47:55;;;;;;;6.03;2.35;;;8.10;99.90;;;;;;5035855;28;20183;-78
2022/02/14 00:50:21;;;;;;;5.30;2.57;;;8.20;99.90;;;;;;5035117;28;20199;-81
2022/02/14 00:52:47;;;;;;;7.17;3.33;;;8.20;99.90;;;;;;5035445;28;20288;-77
2022/02/14 00:55:15;;;;;;;4.90;2.30;;;8.20;99.90;;;;;;5035285;28;20175;-81
2022/02/14 00:57:42;;;;;;;4.60;2.20;;;8.20;99.90;;;;;;5035654;28;20635;-83
2022/02/14 01:00:10;;;;;;;5.60;2.60;;;8.30;99.90;;;;;;5035007;28;20201;-79
2022/02/14 01:02:36;;;;;;;4.05;2.50;;;8.30;99.90;;;;;;5035215;28;20261;-82
2022/02/14 01:05:03;;;;;;;5.77;2.57;;;8.30;99.90;;;;;;5035288;28;20199;-82
2022/02/14 01:07:28;;;;;;;3.78;2.42;;;8.30;99.90;;;;;;5035122;28;20842;-80
2022/02/14 01:09:54;;;;;;;5.40;2.40;;;8.30;99.90;;;;;;5034663;28;20253;-77
2022/02/14 01:12:20;;;;;;;5.00;2.60;;;8.40;99.90;;;;;;5033681;28;20221;-82
2022/02/14 01:14:46;;;;;;;6.40;2.93;;;8.40;99.90;;;;;;5035080;28;20272;-79
2022/02/14 01:17:11;;;;;;;7.80;2.42;;;8.40;99.90;;;;;;5034968;28;20416;-78
2022/02/14 01:19:37;;;;;;;4.60;2.60;;;8.40;99.90;;;;;;5034581;28;20194;-79
2022/02/14 01:22:03;;;;;;;4.53;2.40;;;8.50;99.90;;;;;;5034803;28;20428;-79
2022/02/14 01:24:29;;;;;;;5.85;3.15;;;8.50;99.90;;;;;;5034904;28;20190;-80
2022/02/14 01:26:54;;;;;;;5.80;2.10;;;8.40;99.90;;;;;;5034978;28;20262;-82
2022/02/14 01:29:20;;;;;;;6.07;2.27;;;8.40;99.90;;;;;;5034512;28;20236;-78
2022/02/14 01:31:46;;;;;;;7.87;2.10;;;8.40;99.90;;;;;;5034575;28;20202;-81
2022/02/14 01:34:11;;;;;;;5.30;3.27;;;8.50;99.90;;;;;;5034697;28;20179;-82
2022/02/14 01:36:37;;;;;;;3.13;2.00;;;8.50;99.90;;;;;;5034733;28;20496;-81
2022/02/14 01:39:03;;;;;;;4.47;2.30;;;8.50;99.90;;;;;;5034408;28;20660;-78
2022/02/14 01:41:28;;;;;;;5.30;2.10;;;8.50;99.90;;;;;;5034430;28;20179;-80
2022/02/14 01:43:54;;;;;;;6.97;2.27;;;8.60;99.90;;;;;;5034495;28;20191;-80
2022/02/14 01:46:20;;;;;;;3.17;2.40;;;8.60;99.90;;;;;;5034765;28;20175;-78
2022/02/14 01:48:45;;;;;;;3.70;2.30;;;8.60;99.90;;;;;;5034183;28;20228;-80
2022/02/14 01:51:12;;;;;;;12.57;2.87;;;8.60;99.90;;;;;;5034549;28;20183;-79
2022/02/14 01:53:38;;;;;;;4.47;1.95;;;8.60;99.90;;;;;;5033559;28;20245;-80
2022/02/14 01:56:04;;;;;;;5.20;2.20;;;8.50;99.90;;;;;;5034332;28;20171;-80
2022/02/14 01:58:30;;;;;;;7.50;2.55;;;8.60;99.90;;;;;;5032920;28;20930;-81
2022/02/14 02:00:56;;;;;;;5.00;2.00;;;8.60;99.90;;;;;;5032844;28;20206;-80
2022/02/14 02:03:24;;;;;;;5.40;2.40;;;8.60;99.90;;;;;;5034120;28;20183;-81
2022/02/14 02:05:50;;;;;;;3.67;2.28;;;8.60;99.90;;;;;;5034013;28;20180;-80
2022/02/14 02:08:16;;;;;;;6.57;2.63;;;8.60;99.90;;;;;;5034044;28;20187;-77
2022/02/14 02:10:42;;;;;;;3.70;2.57;;;8.60;99.90;;;;;;5033559;28;20489;-80
2022/02/14 02:13:07;;;;;;;4.30;2.30;;;8.60;99.90;;;;;;5033891;28;20500;-79
2022/02/14 02:15:35;;;;;;;5.57;1.90;;;8.60;99.90;;;;;;5033899;28;20182;-78
2022/02/14 02:18:01;;;;;;;5.55;2.45;;;8.60;99.90;;;;;;5033838;28;20179;-80
2022/02/14 02:20:27;;;;;;;8.67;3.20;;;8.60;99.90;;;;;;5033396;28;20193;-78
2022/02/14 02:22:52;;;;;;;6.30;3.00;;;8.60;99.90;;;;;;5033809;28;20186;-80
2022/02/14 02:25:19;;;;;;;5.00;2.90;;;8.60;99.90;;;;;;5033729;28;20422;-78
2022/02/14 02:27:46;;;;;;;4.35;2.58;;;8.60;99.90;;;;;;5033686;28;20261;-81
2022/02/14 02:30:14;;;;;;;6.65;2.53;;;8.60;99.90;;;;;;5033332;28;20194;-81
2022/02/14 02:32:41;;;;;;;8.80;2.17;;;8.60;99.90;;;;;;5033571;28;20230;-79
2022/02/14 02:35:07;;;;;;;5.00;2.65;;;8.60;99.90;;;;;;5033587;28;20167;-79
2022/02/14 02:37:33;;;;;;;8.20;2.05;;;8.60;99.90;;;;;;5033853;28;20225;-79
2022/02/14 02:39:59;;;;;;;7.47;2.90;;;8.60;99.90;;;;;;5033083;28;20199;-81
2022/02/14 02:42:25;;;;;;;4.70;2.20;;;8.60;99.90;;;;;;5033645;28;20182;-80
2022/02/14 02:44:52;;;;;;;5.70;2.77;;;8.60;99.90;;;;;;5033334;28;20425;-80
2022/02/14 02:47:21;;;;;;;5.55;1.98;;;8.60;99.90;;;;;;5033447;28;20549;-81
2022/02/14 02:49:47;;;;;;;4.03;2.03;;;8.50;99.90;;;;;;5031805;28;20670;-78
2022/02/14 02:52:15;;;;;;;5.85;2.25;;;8.50;99.90;;;;;;5033153;28;20263;-79
2022/02/14 02:54:41;;;;;;;5.72;2.28;;;8.50;99.90;;;;;;5033426;28;20171;-78
2022/02/14 02:57:08;;;;;;;4.55;2.17;;;8.50;99.90;;;;;;5033200;28;20163;-80
2022/02/14 02:59:34;;;;;;;5.45;2.90;;;8.50;99.90;;;;;;5032907;28;20337;-78
2022/02/14 03:02:07;;;;;;;5.28;2.60;;;8.50;99.90;;;;;;5033302;28;20185;-80
2022/02/14 03:04:33;;;;;;;7.13;2.83;;;8.50;99.90;;;;;;5033289;28;20186;-79
2022/02/14 03:07:00;;;;;;;4.47;2.58;;;8.50;99.90;;;;;;5032953;28;20585;-80
2022/02/14 03:09:25;;;;;;;3.70;2.40;;;8.40;99.90;;;;;;5032707;28;20205;-78
2022/02/14 03:11:51;;;;;;;4.13;2.67;;;8.40;99.90;;;;;;5033047;28;20199;-78
2022/02/14 03:14:17;;;;;;;3.43;2.00;;;8.40;99.90;;;;;;5032969;28;20253;-79
2022/02/14 03:16:43;;;;;;;6.07;2.53;;;8.30;99.90;;;;;;5033040;28;20174;-81
2022/02/14 03:19:11;;;;;;;5.60;2.05;;;8.40;99.90;;;;;;5032537;28;20237;-78
2022/02/14 03:21:37;;;;;;;2.83;2.00;;;8.40;99.90;;;;;;5033035;28;20222;-79
2022/02/14 03:24:03;;;;;;;3.63;2.03;;;8.40;99.90;;;;;;5033204;28;20548;-78
2022/02/14 03:26:29;;;;;;;6.95;2.60;;;8.30;99.90;;;;;;5032804;28;20184;-79
2022/02/14 03:28:56;;;;;;;5.20;2.33;;;8.30;99.90;;;;;;5032634;28;20182;-78
2022/02/14 03:31:22;;;;;;;5.80;2.42;;;8.40;99.90;;;;;;5032935;28;20637;-79
2022/02/14 03:33:49;;;;;;;3.55;2.20;;;8.40;99.90;;;;;;5032988;28;20206;-80
2022/02/14 03:36:16;;;;;;;3.63;2.28;;;8.30;99.90;;;;;;5033031;28;20237;-78
2022/02/14 03:38:43;;;;;;;13.65;2.55;;;8.30;99.90;;;;;;5032539;28;20584;-79
2022/02/14 03:41:09;;;;;;;5.50;2.78;;;8.20;99.90;;;;;;5032844;28;20194;-80
2022/02/14 03:43:34;;;;;;;5.38;2.28;;;8.20;99.90;;;;;;5032792;28;20183;-78
2022/02/14 03:46:00;;;;;;;4.43;2.33;;;8.20;99.90;;;;;;5032794;28;20193;-82
2022/02/14 03:48:26;;;;;;;3.83;2.37;;;8.20;99.90;;;;;;5032794;28;20189;-79
2022/02/14 03:50:52;;;;;;;3.30;2.00;;;8.20;99.90;;;;;;5032831;28;20709;-81
2022/02/14 03:53:18;;;;;;;8.70;2.22;;;8.20;99.90;;;;;;5032941;28;20208;-78
2022/02/14 03:55:44;;;;;;;4.83;1.90;;;8.20;99.90;;;;;;5032820;28;20175;-81
2022/02/14 03:58:09;;;;;;;4.90;2.17;;;8.10;99.90;;;;;;5031517;28;20294;-78
2022/02/14 04:00:35;;;;;;;6.33;2.00;;;8.10;99.90;;;;;;5032438;28;20200;-79
2022/02/14 04:03:01;;;;;;;4.20;1.90;;;8.10;99.90;;;;;;5031405;28;20182;-80
2022/02/14 04:05:27;;;;;;;3.10;2.13;;;8.00;99.90;;;;;;5032600;28;20417;-82
2022/02/14 04:07:57;;;;;;;2.23;2.00;;;8.10;99.90;;;;;;5032638;28;20187;-81
2022/02/14 04:10:23;;;;;;;3.75;1.75;;;8.10;99.90;;;;;;5032053;28;20256;-80
2022/02/14 04:12:49;;;;;;;5.15;2.30;;;8.10;99.90;;;;;;5032416;28;20244;-79
2022/02/14 04:15:15;;;;;;;2.43;2.23;;;8.10;99.90;;;;;;5032558;28;20588;-78
2022/02/14 04:17:41;;;;;;;8.93;2.40;;;8.10;99.90;;;;;;5035725;28;20266;-79
2022/02/14 04:20:08;;;;;;;4.07;1.80;;;8.10;99.90;;;;;;5035717;28;20429;-81
2022/02/14 04:22:33;;;;;;;2.78;2.45;;;8.10;99.90;;;;;;5018252;28;20186;-80
2022/02/14 04:24:59;;;;;;;2.70;2.20;;;8.10;99.90;;;;;;5034750;28;20241;-80
2022/02/14 04:27:25;;;;;;;3.03;2.37;;;8.10;99.90;;;;;;5035998;28;20210;-81
2022/02/14 04:29:50;;;;;;;4.17;1.97;;;8.10;99.90;;;;;;5035818;28;20810;-78
2022/02/14 04:32:16;;;;;;;3.70;1.50;;;8.10;99.90;;;;;;5035740;28;20229;-80
2022/02/14 04:34:41;;;;;;;6.80;1.80;;;8.10;99.90;;;;;;5035735;28;20267;-80
2022/02/14 04:37:07;;;;;;;5.60;1.80;;;8.20;99.90;;;;;;5035762;28;20190;-81
2022/02/14 04:39:32;;;;;;;3.30;1.90;;;8.20;99.90;;;;;;5035213;28;20201;-78
2022/02/14 04:41:58;;;;;;;4.67;2.20;;;8.30;99.90;;;;;;5035820;28;20644;-81
2022/02/14 04:44:24;;;;;;;8.80;2.03;;;8.40;99.90;;;;;;5035556;28;20186;-80
2022/02/14 04:46:49;;;;;;;3.53;1.47;;;8.50;99.90;;;;;;5035691;28;20195;-79
2022/02/14 04:49:15;;;;;;;3.60;2.00;;;8.40;99.90;;;;;;5035268;28;20266;-80
2022/02/14 04:51:41;;;;;;;6.23;1.90;;;8.40;99.90;;;;;;5035508;28;20214;-80
2022/02/14 04:54:07;;;;;;;3.08;1.67;;;8.40;99.90;;;;;;5035656;28;20441;-80
2022/02/14 04:56:33;;;;;;;4.95;1.70;;;8.50;99.90;;;;;;5035551;28;20236;-80
2022/02/14 04:58:58;;;;;;;2.40;1.50;;;8.50;99.90;;;;;;5035058;28;20186;-81
2022/02/14 05:01:24;;;;;;;4.20;1.60;;;8.50;99.90;;;;;;5035384;28;20221;-82
2022/02/14 05:03:51;;;;;;;3.27;1.33;;;8.60;99.90;;;;;;5035606;28;20190;-80
2022/02/14 05:06:16;;;;;;;3.95;1.67;;;8.60;99.90;;;;;;5035483;28;20417;-78
2022/02/14 05:08:42;;;;;;;2.37;1.80;;;8.70;99.90;;;;;;5035038;28;20273;-81
2022/02/14 05:11:09;;;;;;;3.43;1.30;;;8.60;99.90;;;;;;5034928;28;20626;-80
2022/02/14 05:13:37;;;;;;;3.17;1.77;;;8.70;99.90;;;;;;5035083;28;20465;-79
2022/02/14 05:16:03;;;;;;;2.55;1.85;;;8.80;99.90;;;;;;5035154;28;20242;-78
2022/02/14 05:18:29;;;;;;;2.13;1.53;;;8.90;99.90;;;;;;5034899;28;20183;-78
2022/02/14 05:20:54;;;;;;;2.10;1.57;;;8.90;99.90;;;;;;5034561;28;20223;-81
2022/02/14 05:23:20;;;;;;;2.70;1.50;;;9.00;99.90;;;;;;5034764;28;20181;-80
2022/02/14 05:25:45;;;;;;;2.90;1.63;;;9.00;99.90;;;;;;5035006;28;20179;-77
2022/02/14 05:28:11;;;;;;;2.03;1.47;;;9.10;99.90;;;;;;5033856;28;20270;-81
2022/02/14 05:30:37;;;;;;;2.55;1.77;;;9.20;99.90;;;;;;5034392;28;20202;-80
2022/02/14 05:33:07;;;;;;;3.72;1.80;;;9.20;99.90;;;;;;5034566;28;20207;-81
2022/02/14 05:35:33;;;;;;;7.70;1.63;;;9.20;99.90;;;;;;5034758;28;20171;-77
2022/02/14 05:37:59;;;;;;;2.60;1.98;;;9.20;99.90;;;;;;5034702;28;20244;-79
2022/02/14 05:40:25;;;;;;;3.38;1.88;;;9.30;99.90;;;;;;5033106;28;20199;-81
2022/02/14 05:42:51;;;;;;;2.85;1.50;;;9.20;99.90;;;;;;5034553;28;20215;-80
2022/02/14 05:45:17;;;;;;;2.17;1.70;;;9.20;99.90;;;;;;5034524;28;20203;-77
2022/02/14 05:47:42;;;;;;;1.77;1.30;;;9.20;99.90;;;;;;5034446;28;20660;-80
2022/02/14 05:50:09;;;;;;;1.47;1.13;;;9.30;99.90;;;;;;5034155;28;20206;-80
2022/02/14 05:52:35;;;;;;;2.85;1.33;;;9.30;99.90;;;;;;5034354;28;20306;-79
2022/02/14 05:55:02;;;;;;;4.32;1.50;;;9.30;99.90;;;;;;5034556;28;20249;-79
2022/02/14 05:57:27;;;;;;;1.95;1.30;;;9.30;99.90;;;;;;5033138;28;20186;-79
2022/02/14 05:59:53;;;;;;;1.40;1.20;;;9.30;99.90;;;;;;5033829;28;20675;-79
2022/02/14 06:02:18;;;;;;;1.80;1.40;;;9.30;99.90;;;;;;5034277;28;20183;-78
2022/02/14 06:04:44;;;;;;;2.97;2.20;;;9.30;99.90;;;;;;5034246;28;20175;-81
2022/02/14 06:07:10;;;;;;;3.60;1.67;;;9.30;99.90;;;;;;5032775;28;20183;-81
2022/02/14 06:09:35;;;;;;;2.63;1.43;;;9.20;99.90;;;;;;5033561;28;20218;-81
2022/02/14 06:12:01;;;;;;;2.00;1.33;;;9.20;99.90;;;;;;5032839;28;20210;-81
2022/02/14 06:14:27;;;;;;;2.80;1.40;;;9.30;99.90;;;;;;5034066;28;20171;-79
2022/02/14 06:16:53;;;;;;;4.13;1.90;;;9.20;99.90;;;;;;5033926;28;20552;-78
2022/02/14 06:19:21;;;;;;;6.93;2.13;;;9.30;99.90;;;;;;5033562;28;20199;-80
2022/02/14 06:21:47;;;;;;;5.82;2.22;;;9.20;99.90;;;;;;5033703;28;20203;-81
2022/02/14 06:24:13;;;;;;;5.30;1.40;;;9.20;99.90;;;;;;5033832;28;20632;-80
2022/02/14 06:26:38;;;;;;;1.97;1.27;;;9.10;99.90;;;;;;5034095;28;20413;-79
2022/02/14 06:29:05;;;;;;;4.83;2.00;;;9.10;99.90;;;;;;5033402;28;20182;-82
2022/02/14 06:31:31;;;;;;;3.75;1.55;;;9.10;99.90;;;;;;5033645;28;20171;-78
2022/02/14 06:33:57;;;;;;;2.20;1.40;;;9.20;99.90;;;;;;5033544;28;20214;-78
2022/02/14 06:36:26;;;;;;;4.25;1.70;;;9.20;99.90;;;;;;5033744;28;20524;-80
2022/02/14 06:38:56;;;;;;;2.88;1.40;;;9.20;99.90;;;;;;5033007;28;20233;-77
2022/02/14 06:41:23;;;;;;;1.75;1.40;;;9.20;99.90;;;;;;5033539;28;20225;-81
2022/02/14 06:43:49;;;;;;;5.10;2.08;;;9.10;99.90;;;;;;5033711;28;20174;-77
2022/02/14 06:46:15;;;;;;;2.88;2.00;;;9.20;99.90;;;;;;5033492;28;20590;-81
2022/02/14 06:48:40;;;;;;;1.23;1.13;;;9.20;99.90;;;;;;5033197;28;20175;-79
2022/02/14 06:51:06;;;;;;;1.80;1.10;;;9.30;99.90;;;;;;5032049;28;20211;-82
2022/02/14 06:53:32;;;;;;;3.60;1.60;;;9.40;99.90;;;;;;5033462;28;20260;-80
2022/02/14 06:56:00;;;;;;;3.03;1.30;;;9.40;99.90;;;;;;5033338;28;20232;-80
2022/02/14 06:58:26;;;;;;;2.10;1.23;;;9.50;99.90;;;;;;5033600;28;20179;-79
2022/02/14 07:00:52;;;;;;;2.20;1.67;;;9.50;99.90;;;;;;5033194;28;20229;-78
2022/02/14 07:03:18;;;;;;;4.43;1.27;;;9.50;99.90;;;;;;5033251;28;20544;-81
2022/02/14 07:05:43;;;;;;;4.23;1.93;;;9.50;99.90;;;;;;5033196;28;20183;-79
2022/02/14 07:08:09;;;;;;;2.30;1.33;;;9.60;99.90;;;;;;5033231;28;20179;-77
2022/02/14 07:10:35;;;;;;;2.00;1.20;;;9.70;99.90;;;;;;5032721;28;20257;-78
2022/02/14 07:13:01;;;;;;;2.00;1.30;;;9.60;99.90;;;;;;5033111;28;20230;-78
2022/02/14 07:15:27;;;;;;;1.67;1.27;;;9.70;99.90;;;;;;5033206;28;20787;-81
2022/02/14 07:17:53;;;;;;;2.20;1.30;;;9.80;99.90;;;;;;5033049;28;20425;-80
2022/02/14 07:20:19;;;;;;;2.70;1.30;;;9.80;99.90;;;;;;5032575;28;20218;-79
2022/02/14 07:22:45;;;;;;;5.18;1.33;;;9.80;99.90;;;;;;5033038;28;20186;-79
2022/02/14 07:25:11;;;;;;;5.03;1.70;;;9.80;99.90;;;;;;5033068;28;20179;-79
2022/02/14 07:27:38;;;;;;;1.75;1.65;;;9.90;99.90;;;;;;5033050;28;20281;-82
2022/02/14 07:30:06;;;;;;;1.95;1.45;;;9.90;99.90;;;;;;5032569;28;20237;-79
2022/02/14 07:32:32;;;;;;;1.60;1.13;;;10.00;99.90;;;;;;5031705;28;20230;-79
2022/02/14 07:34:58;;;;;;;2.17;1.50;;;10.00;99.90;;;;;;5033049;28;20210;-79
2022/02/14 07:37:25;;;;;;;1.47;1.20;;;10.00;99.90;;;;;;5032956;28;20167;-80
2022/02/14 07:39:51;;;;;;;1.92;1.70;;;10.10;99.90;;;;;;5032507;28;21065;-81
2022/02/14 07:42:16;;;;;;;2.13;1.30;;;10.00;99.90;;;;;;5032813;28;20225;-81
2022/02/14 07:44:42;;;;;;;5.13;1.33;;;10.10;99.90;;;;;;5032796;28;20206;-78
2022/02/14 07:47:08;;;;;;;1.97;1.07;;;10.20;99.90;;;;;;5031595;28;20644;-81
2022/02/14 07:49:33;;;;;;;3.53;1.60;;;10.20;99.90;;;;;;5032443;28;20203;-82
2022/02/14 07:51:59;;;;;;;2.87;1.53;;;10.20;99.90;;;;;;5034888;28;20260;-79
2022/02/14 07:54:25;;;;;;;2.03;1.30;;;10.30;99.90;;;;;;5036593;28;20535;-79
2022/02/14 07:56:50;;;;;;;2.40;1.50;;;10.30;99.90;;;;;;5036604;28;20175;-78
2022/02/14 07:59:16;;;;;;;2.40;1.67;;;10.40;99.90;;;;;;5034903;28;20199;-80
2022/02/14 08:01:42;;;;;;;2.67;1.50;;;10.40;99.90;;;;;;5036644;28;20202;-81
2022/02/14 08:04:07;;;;;;;3.33;1.20;;;10.50;99.90;;;;;;5036540;28;20179;-80
2022/02/14 08:06:34;;;;;;;2.33;1.30;;;10.60;99.90;;;;;;5036499;28;20179;-81
2022/02/14 08:09:00;;;;;;;1.35;0.93;;;10.60;99.90;;;;;;5036022;28;20199;-78
2022/02/14 08:11:26;;;;;;;4.77;1.10;;;10.70;99.90;;;;;;5018854;28;20229;-77
2022/02/14 08:13:51;;;;;;;1.87;1.27;;;10.80;99.90;;;;;;5036292;28;20218;-78
2022/02/14 08:16:17;;;;;;;8.73;1.80;;;10.80;99.90;;;;;;5036045;28;20203;-77
2022/02/14 08:18:42;;;;;;;1.40;1.10;;;10.80;99.90;;;;;;5035922;28;20179;-81
2022/02/14 08:21:08;;;;;;;1.97;1.20;;;10.90;99.90;;;;;;5036165;28;20245;-79
2022/02/14 08:23:33;;;;;;;1.73;1.20;;;11.10;99.90;;;;;;5036126;28;20276;-78
2022/02/14 08:25:59;;;;;;;1.30;1.10;;;11.10;99.90;;;;;;5034817;28;20245;-80
2022/02/14 08:28:25;;;;;;;2.50;0.90;;;11.20;99.90;;;;;;5035910;28;20590;-81
2022/02/14 08:30:50;;;;;;;1.20;1.03;;;11.20;99.90;;;;;;5035516;28;20203;-79
2022/02/14 08:33:17;;;;;;;1.30;1.00;;;11.30;99.90;;;;;;5035850;28;20221;-80
2022/02/14 08:35:43;;;;;;;1.27;0.90;;;11.30;99.90;;;;;;5034540;28;20179;-78
2022/02/14 08:38:09;;;;;;;1.17;1.00;;;11.30;99.90;;;;;;5035867;28;20175;-78
2022/02/14 08:40:35;;;;;;;1.10;0.93;;;11.40;99.90;;;;;;5034109;28;20571;-81
2022/02/14 08:43:02;;;;;;;1.17;0.90;;;11.40;99.90;;;;;;5034526;28;20417;-80
2022/02/14 08:45:28;;;;;;;2.00;1.30;;;11.50;99.90;;;;;;5035608;28;20202;-78
2022/02/14 08:47:54;;;;;;;1.55;0.90;;;11.50;99.90;;;;;;5035787;28;20551;-81
2022/02/14 08:50:20;;;;;;;2.10;1.07;;;11.60;99.90;;;;;;5035209;28;20199;-80
2022/02/14 08:52:46;;;;;;;2.50;1.30;;;11.60;99.90;;;;;;5035662;28;20203;-78
2022/02/14 08:55:13;;;;;;;1.75;1.08;;;11.60;99.90;;;;;;5035722;28;20189;-78
2022/02/14 08:57:39;;;;;;;1.90;1.00;;;11.60;99.90;;;;;;5035698;28;20646;-78
2022/02/14 09:00:07;;;;;;;8.18;1.17;;;11.70;99.90;;;;;;5035075;28;20199;-79
2022/02/14 09:02:33;;;;;;;1.88;0.85;;;11.70;99.90;;;;;;5035420;28;20182;-79
2022/02/14 09:04:58;;;;;;;3.23;1.07;;;11.70;99.90;;;;;;5035400;28;20647;-78
2022/02/14 09:07:24;;;;;;;3.70;1.10;;;11.70;99.90;;;;;;5035447;28;20175;-80
2022/02/14 09:09:50;;;;;;;1.93;1.00;;;11.70;99.90;;;;;;5034765;28;20215;-78
2022/02/14 09:12:15;;;;;;;1.80;0.90;;;11.80;99.90;;;;;;5033941;28;20207;-80
2022/02/14 09:14:41;;;;;;;2.10;1.20;;;11.90;99.90;;;;;;5035271;28;20181;-79
2022/02/14 09:17:06;;;;;;;1.40;1.20;;;11.90;99.90;;;;;;5035094;28;20179;-80
2022/02/14 09:19:32;;;;;;;2.37;1.30;;;11.90;99.90;;;;;;5034745;28;20199;-80
2022/02/14 09:21:58;;;;;;;1.10;0.90;;;12.10;99.90;;;;;;5035107;28;20171;-77
2022/02/14 09:24:23;;;;;;;1.33;0.83;;;12.20;99.90;;;;;;5034963;28;20175;-81
2022/02/14 09:26:49;;;;;;;2.30;1.27;;;12.10;99.90;;;;;;5033536;28;20192;-79
2022/02/14 09:29:15;;;;;;;1.57;1.13;;;12.20;99.90;;;;;;5034391;28;20273;-77
2022/02/14 09:31:41;;;;;;;1.50;1.13;;;12.20;99.90;;;;;;5034769;28;20206;-81
2022/02/14 09:34:08;;;;;;;4.00;0.80;;;12.20;99.90;;;;;;5033731;28;20421;-78
2022/02/14 09:36:34;;;;;;;2.65;1.38;;;12.10;99.90;;;;;;5034590;28;20175;-80
2022/02/14 09:39:01;;;;;;;2.40;1.20;;;12.10;99.90;;;;;;5034298;28;20174;-80
2022/02/14 09:41:28;;;;;;;1.20;1.00;;;12.10;99.90;;;;;;5033624;28;20425;-81
2022/02/14 09:44:36;;;;;;;1.10;0.90;;;12.20;99.90;;;;;;5016091;28;20862;-80
2022/02/14 09:50:30;;;;;;;1.90;0.90;;;12.20;99.90;;;;;;4972858;28;20533;-82
2022/02/14 09:52:57;;;;;;;1.30;0.73;;;12.30;99.90;;;;;;5034683;28;20293;-81
2022/02/14 09:55:23;;;;;;;1.70;1.10;;;12.10;99.90;;;;;;5034208;28;20186;-80
2022/02/14 09:57:49;;;;;;;1.20;0.90;;;12.20;99.90;;;;;;5034433;28;20445;-82
2022/02/14 10:00:15;;;;;;;0.90;0.80;;;12.20;99.90;;;;;;5033902;28;20446;-80
2022/02/14 10:02:41;;;;;;;1.88;0.70;;;12.00;99.90;;;;;;5034540;28;20183;-81
2022/02/14 10:05:10;;;;;;;1.67;0.90;;;11.90;99.90;;;;;;5033098;28;20193;-82
2022/02/14 10:07:48;;;;;;;1.60;0.98;;;11.70;99.90;;;;;;5034298;28;20182;-79
2022/02/14 10:10:18;;;;;;;1.20;0.70;;;11.40;99.90;;;;;;5032592;28;20637;-81
2022/02/14 10:12:55;;;;;;;1.00;0.60;;;10.90;99.90;;;;;;5032667;28;20671;-80
2022/02/14 10:15:22;;;;;;;1.00;0.60;;;10.70;99.90;;;;;;5032161;28;20670;-79
2022/02/14 10:17:50;;;;;;;0.80;0.55;;;10.60;99.90;;;;;;5034076;28;20178;-81
2022/02/14 10:20:22;;;;;;;0.75;0.52;;;10.50;99.90;;;;;;5033525;28;20186;-80
2022/02/14 10:22:52;;;;;;;0.90;0.60;;;10.50;99.90;;;;;;5033828;28;20185;-81
2022/02/14 10:25:41;;;;;;;1.23;0.70;;;10.50;99.90;;;;;;5033636;28;20179;-82
2022/02/14 10:28:28;;;;;;;1.20;0.80;;;10.60;99.90;;;;;;5034061;28;20163;-83
2022/02/14 10:31:00;;;;;;;0.80;0.70;;;10.70;99.90;;;;;;5033452;28;20198;-82
2022/02/14 10:33:48;;;;;;;1.10;0.60;;;10.80;99.90;;;;;;5033497;28;20199;-82
2022/02/14 10:36:22;;;;;;;1.10;0.80;;;10.90;99.90;;;;;;5034025;28;20206;-81
2022/02/14 10:38:48;;;;;;;0.90;0.60;;;11.00;99.90;;;;;;5033310;28;20593;-83
2022/02/14 10:41:14;;;;;;;1.13;0.63;;;11.10;99.90;;;;;;5033425;28;20207;-80
2022/02/14 10:43:41;;;;;;;3.10;0.80;;;11.40;99.90;;;;;;5033371;28;20224;-81
2022/02/14 10:46:07;;;;;;;1.10;0.63;;;11.90;99.90;;;;;;5041255;28;20455;-80
2022/02/14 10:48:40;;;;;;;1.03;0.70;;;12.20;99.90;;;;;;5041738;28;20447;-82
2022/02/14 10:51:06;;;;;;;1.47;0.60;;;12.00;99.90;;;;;;5047640;28;20515;-80
2022/02/14 10:53:46;;;;;;;1.07;0.70;;;11.60;99.90;;;;;;5053418;28;20464;-82
2022/02/14 10:56:14;;;;;;;5.23;1.13;;;11.60;99.90;;;;;;5053484;28;20804;-80
2022/02/14 10:58:41;;;;;;;0.93;0.70;;;11.50;99.90;;;;;;5051815;28;20413;-81
2022/02/14 11:01:11;;;;;;;1.02;0.70;;;11.40;99.90;;;;;;5051818;28;20332;-80
2022/02/14 11:03:41;;;;;;;2.72;1.13;;;11.30;99.90;;;;;;5053176;28;20174;-79
2022/02/14 11:06:07;;;;;;;0.80;0.70;;;11.40;99.90;;;;;;5053242;28;20178;-81
2022/02/14 11:08:38;;;;;;;1.00;0.70;;;11.40;99.90;;;;;;5053103;28;20181;-80
2022/02/14 11:11:07;;;;;;;3.58;0.80;;;11.60;99.90;;;;;;5052963;28;20210;-82
2022/02/14 11:13:34;;;;;;;1.50;0.60;;;11.50;99.90;;;;;;5053025;28;20210;-82
2022/02/14 11:16:01;;;;;;;1.05;0.68;;;11.60;99.90;;;;;;5052993;28;20265;-81
2022/02/14 11:18:31;;;;;;;0.98;0.80;;;11.60;99.90;;;;;;5053021;28;20170;-80
2022/02/14 11:20:59;;;;;;;0.90;0.80;;;11.60;99.90;;;;;;5052801;28;20202;-83
2022/02/14 11:23:27;;;;;;;2.50;0.70;;;11.80;99.90;;;;;;5053056;28;20527;-81
2022/02/14 11:26:24;;;;;;;1.00;0.70;;;12.00;99.90;;;;;;5053523;28;20414;-81
2022/02/14 11:29:04;;;;;;;1.03;0.60;;;12.00;99.90;;;;;;5056839;28;20800;-83
2022/02/14 11:31:33;;;;;;;2.60;0.90;;;12.20;99.90;;;;;;5056992;28;20451;-81
2022/02/14 11:34:04;;;;;;;0.80;0.60;;;12.40;99.90;;;;;;5055605;28;20573;-83
2022/02/14 11:36:31;;;;;;;1.93;0.80;;;12.70;99.90;;;;;;5055772;28;20408;-83
2022/02/14 11:39:05;;;;;;;2.80;1.03;;;12.90;99.90;;;;;;5055516;28;20504;-81
2022/02/14 11:41:36;;;;;;;1.40;0.90;;;13.20;99.90;;;;;;5057065;28;20802;-82
2022/02/14 11:44:11;;;;;;;1.63;0.70;;;13.10;99.90;;;;;;5057039;28;20422;-82
2022/02/14 11:46:42;;;;;;;2.17;0.90;;;13.10;99.90;;;;;;5056776;28;20413;-82
2022/02/14 11:49:11;;;;;;;3.13;0.90;;;12.90;99.90;;;;;;5056500;28;20441;-82
2022/02/14 11:51:42;;;;;;;2.50;1.03;;;13.00;99.90;;;;;;5056931;28;20416;-79
2022/02/14 11:54:37;;;;;;;1.70;0.80;;;12.80;99.90;;;;;;5056527;28;20464;-83
2022/02/14 11:57:31;;;;;;;1.53;0.90;;;12.90;99.90;;;;;;5055502;28;20447;-81
2022/02/14 12:00:15;;;;;;;3.63;1.00;;;12.60;99.90;;;;;;5036241;28;20425;-80
2022/02/14 12:03:10;;;;;;;2.30;0.90;;;12.60;99.90;;;;;;5036666;28;20423;-80
2022/02/14 12:05:51;;;;;;;1.27;0.83;;;12.50;99.90;;;;;;5036683;28;20738;-81
2022/02/14 12:08:19;;;;;;;1.27;0.80;;;12.20;99.90;;;;;;5035103;28;20908;-81
2022/02/14 12:10:56;;;;;;;4.07;1.17;;;12.00;99.90;;;;;;5034779;28;20977;-81
2022/02/14 12:13:27;;;;;;;0.95;0.80;;;11.70;99.90;;;;;;5036422;28;20238;-81
2022/02/14 12:21:29;;;;;;;1.42;0.75;;;11.70;99.90;;;;;;5036286;28;20201;-80
2022/02/14 12:23:58;;;;;;;1.27;0.80;;;11.50;99.90;;;;;;5036119;28;20209;-81
2022/02/14 12:26:27;;;;;;;3.03;1.20;;;11.60;99.90;;;;;;5034630;28;20593;-81
2022/02/14 12:31:42;;;;;;;2.45;0.80;;;11.30;99.90;;;;;;5036241;28;20222;-81
2022/02/14 12:34:08;;;;;;;1.35;0.90;;;11.40;99.90;;;;;;5035897;28;20214;-81
2022/02/14 12:36:34;;;;;;;2.30;0.87;;;11.40;99.90;;;;;;5033802;28;20237;-81
2022/02/14 12:38:59;;;;;;;1.63;0.80;;;11.40;99.90;;;;;;5035552;28;20580;-81
2022/02/14 12:41:25;;;;;;;2.80;1.00;;;11.30;99.90;;;;;;5035899;28;20176;-81
2022/02/14 12:43:51;;;;;;;1.00;0.80;;;11.40;99.90;;;;;;5035957;28;20186;-81
2022/02/14 12:46:20;;;;;;;2.15;0.80;;;11.20;99.90;;;;;;5035904;28;20171;-81
2022/02/14 12:48:48;;;;;;;1.80;1.10;;;11.40;99.90;;;;;;5034103;28;20183;-81
2022/02/14 12:51:21;;;;;;;4.25;1.48;;;11.30;99.90;;;;;;5035628;28;20233;-81
2022/02/14 12:54:01;;;;;;;1.63;0.80;;;11.40;99.90;;;;;;5035358;28;20214;-81
2022/02/14 12:56:32;;;;;;;3.50;0.90;;;11.70;99.90;;;;;;5035516;28;20243;-81
2022/02/14 12:59:09;;;;;;;2.03;1.05;;;11.90;99.90;;;;;;5035105;28;20194;-81
2022/02/14 13:01:45;;;;;;;2.97;1.10;;;12.20;99.90;;;;;;5035724;28;20174;-81
2022/02/14 13:04:17;;;;;;;1.93;1.00;;;12.30;99.90;;;;;;5034384;28;20183;-81
2022/02/14 13:06:44;;;;;;;4.93;1.50;;;11.90;99.90;;;;;;5035448;28;20418;-81